Time,TemperatureF,DewpointF,PressureIn,WindDirection,WindDirectionDegrees,WindSpeedMPH,WindSpeedGustMPH,Humidity,HourlyPrecipIn,Conditions,Clouds,dailyrainin,SoftwareType,DateUTC
2013-01-28 00:00:00,71.3,63.0,29.89,SSW,203,0.0,-999.0,75,0.00,,,0.20,Wunderground v.1.15,2013-01-28 10:00:00,
2013-01-28 00:05:00,71.3,63.0,29.89,SSW,203,0.0,-999.0,75,0.00,,,0.20,Wunderground v.1.15,2013-01-28 10:05:00,
2013-01-28 00:10:00,71.3,63.0,29.89,SSW,203,0.0,-999.0,75,0.00,,,0.20,Wunderground v.1.15,2013-01-28 10:10:00,
2013-01-28 00:15:00,71.3,63.0,29.89,SSW,203,0.0,-999.0,75,0.00,,,0.20,Wunderground v.1.15,2013-01-28 10:15:00,
2013-01-28 00:20:00,71.3,63.0,29.89,SSW,203,0.0,-999.0,75,0.00,,,0.20,Wunderground v.1.15,2013-01-28 10:20:00,
2013-01-28 00:25:00,71.3,63.0,29.89,SSW,203,0.0,-999.0,75,0.00,,,0.20,Wunderground v.1.15,2013-01-28 10:25:00,
2013-01-28 00:30:00,71.3,63.0,29.89,SSW,203,0.0,-999.0,75,0.00,,,0.20,Wunderground v.1.15,2013-01-28 10:30:00,
2013-01-28 00:35:00,71.3,63.0,29.89,SSW,203,0.0,-999.0,75,0.00,,,0.20,Wunderground v.1.15,2013-01-28 10:35:00,
2013-01-28 00:40:00,71.3,63.0,29.89,SSW,203,0.0,-999.0,75,0.00,,,0.20,Wunderground v.1.15,2013-01-28 10:40:00,
2013-01-28 00:45:00,71.2,62.9,29.89,SSW,203,0.0,-999.0,75,0.00,,,0.20,Wunderground v.1.15,2013-01-28 10:45:00,
2013-01-28 00:50:00,71.2,62.9,29.89,SSW,203,0.0,-999.0,75,0.00,,,0.20,Wunderground v.1.15,2013-01-28 10:50:00,
2013-01-28 00:55:00,71.2,62.9,29.89,SSW,203,0.0,-999.0,75,0.00,,,0.20,Wunderground v.1.15,2013-01-28 10:55:00,
2013-01-28 01:00:00,71.2,62.9,29.89,SSW,203,0.0,-999.0,75,0.00,,,0.20,Wunderground v.1.15,2013-01-28 11:00:00,
2013-01-28 01:05:00,71.2,62.9,29.89,SSW,203,0.0,-999.0,75,0.00,,,0.20,Wunderground v.1.15,2013-01-28 11:05:00,
2013-01-28 01:10:00,71.2,62.9,29.89,SSW,203,0.0,-999.0,75,0.00,,,0.20,Wunderground v.1.15,2013-01-28 11:10:00,
2013-01-28 01:15:00,70.2,61.1,29.89,SSW,203,0.0,-999.0,73,0.00,,,0.20,Wunderground v.1.15,2013-01-28 11:15:00,
2013-01-28 01:20:00,70.2,61.1,29.89,SSW,203,0.0,-999.0,73,0.00,,,0.20,Wunderground v.1.15,2013-01-28 11:20:00,
2013-01-28 01:25:00,70.2,61.1,29.89,SSW,203,0.0,-999.0,73,0.00,,,0.20,Wunderground v.1.15,2013-01-28 11:25:00,
2013-01-28 01:30:00,70.2,61.1,29.89,SSW,203,0.0,-999.0,73,0.00,,,0.20,Wunderground v.1.15,2013-01-28 11:30:00,
2013-01-28 01:35:00,70.2,61.1,29.89,SSW,203,0.0,-999.0,73,0.00,,,0.20,Wunderground v.1.15,2013-01-28 11:35:00,
2013-01-28 01:40:00,70.2,61.1,29.89,SSW,203,0.0,-999.0,73,0.00,,,0.20,Wunderground v.1.15,2013-01-28 11:40:00,
2013-01-28 01:45:00,69.2,62.8,29.89,SSW,203,0.0,-999.0,80,0.00,,,0.20,Wunderground v.1.15,2013-01-28 11:45:00,
2013-01-28 01:50:00,69.2,62.8,29.89,SSW,203,0.0,-999.0,80,0.00,,,0.20,Wunderground v.1.15,2013-01-28 11:50:00,
2013-01-28 01:55:00,69.2,62.8,29.89,SSW,203,0.0,-999.0,80,0.00,,,0.20,Wunderground v.1.15,2013-01-28 11:55:00,
2013-01-28 02:00:00,69.2,62.8,29.89,SSW,203,0.0,-999.0,80,0.00,,,0.20,Wunderground v.1.15,2013-01-28 12:00:00,
2013-01-28 02:05:00,69.2,62.8,29.89,SSW,203,0.0,-999.0,80,0.00,,,0.20,Wunderground v.1.15,2013-01-28 12:05:00,
2013-01-28 02:10:00,69.2,62.8,29.89,SSW,203,0.0,-999.0,80,0.00,,,0.20,Wunderground v.1.15,2013-01-28 12:10:00,
2013-01-28 02:15:00,68.9,64.2,29.88,NE,45,3.0,-999.0,85,0.00,,,0.20,Wunderground v.1.15,2013-01-28 12:15:00,
2013-01-28 02:20:00,68.9,64.2,29.88,NE,45,3.0,-999.0,85,0.00,,,0.20,Wunderground v.1.15,2013-01-28 12:20:00,
2013-01-28 02:25:00,68.9,64.2,29.88,NE,45,3.0,-999.0,85,0.00,,,0.20,Wunderground v.1.15,2013-01-28 12:25:00,
2013-01-28 02:30:00,68.9,64.2,29.88,NE,45,3.0,-999.0,85,0.00,,,0.20,Wunderground v.1.15,2013-01-28 12:30:00,
2013-01-28 02:35:00,68.9,64.2,29.88,NE,45,3.0,-999.0,85,0.00,,,0.20,Wunderground v.1.15,2013-01-28 12:35:00,
2013-01-28 02:40:00,68.9,64.2,29.88,NE,45,3.0,-999.0,85,0.00,,,0.20,Wunderground v.1.15,2013-01-28 12:40:00,
2013-01-28 02:45:00,67.6,64.2,29.88,NE,45,4.0,-999.0,89,0.01,,,0.20,Wunderground v.1.15,2013-01-28 12:45:00,
2013-01-28 02:50:00,67.6,64.2,29.88,NE,45,4.0,-999.0,89,0.01,,,0.20,Wunderground v.1.15,2013-01-28 12:50:00,
2013-01-28 02:55:00,67.6,64.2,29.88,NE,45,4.0,-999.0,89,0.01,,,0.20,Wunderground v.1.15,2013-01-28 12:55:00,
2013-01-28 03:00:00,67.6,64.2,29.88,NE,45,4.0,-999.0,89,0.01,,,0.20,Wunderground v.1.15,2013-01-28 13:00:00,
2013-01-28 03:05:00,67.6,64.2,29.88,NE,45,4.0,-999.0,89,0.01,,,0.20,Wunderground v.1.15,2013-01-28 13:05:00,
2013-01-28 03:10:00,67.6,64.2,29.88,NE,45,4.0,-999.0,89,0.01,,,0.20,Wunderground v.1.15,2013-01-28 13:10:00,
2013-01-28 03:15:00,67.1,64.1,29.87,NE,45,2.0,-999.0,90,0.06,,,0.20,Wunderground v.1.15,2013-01-28 13:15:00,
2013-01-28 03:20:00,67.1,64.1,29.87,NE,45,2.0,-999.0,90,0.06,,,0.20,Wunderground v.1.15,2013-01-28 13:20:00,
2013-01-28 03:25:00,67.1,64.1,29.87,NE,45,2.0,-999.0,90,0.06,,,0.20,Wunderground v.1.15,2013-01-28 13:25:00,
2013-01-28 03:30:00,67.1,64.1,29.87,NE,45,2.0,-999.0,90,0.06,,,0.20,Wunderground v.1.15,2013-01-28 13:30:00,
2013-01-28 03:35:00,67.1,64.1,29.87,NE,45,2.0,-999.0,90,0.06,,,0.20,Wunderground v.1.15,2013-01-28 13:35:00,
2013-01-28 03:40:00,67.1,64.1,29.87,NE,45,2.0,-999.0,90,0.06,,,0.20,Wunderground v.1.15,2013-01-28 13:40:00,
2013-01-28 03:45:00,66.5,63.8,29.88,NE,45,3.0,-999.0,91,0.09,,,0.20,Wunderground v.1.15,2013-01-28 13:45:00,
2013-01-28 03:50:00,66.5,63.8,29.88,NE,45,3.0,-999.0,91,0.09,,,0.20,Wunderground v.1.15,2013-01-28 13:50:00,
2013-01-28 03:55:00,66.5,63.8,29.88,NE,45,3.0,-999.0,91,0.09,,,0.20,Wunderground v.1.15,2013-01-28 13:55:00,
2013-01-28 04:00:00,66.5,63.8,29.88,NE,45,3.0,-999.0,91,0.09,,,0.20,Wunderground v.1.15,2013-01-28 14:00:00,
2013-01-28 04:05:00,66.5,63.8,29.88,NE,45,3.0,-999.0,91,0.09,,,0.20,Wunderground v.1.15,2013-01-28 14:05:00,
2013-01-28 04:10:00,66.5,63.8,29.88,NE,45,3.0,-999.0,91,0.09,,,0.20,Wunderground v.1.15,2013-01-28 14:10:00,
2013-01-28 04:15:00,66.1,63.4,29.87,NE,45,1.0,-999.0,91,0.04,,,0.20,Wunderground v.1.15,2013-01-28 14:15:00,
2013-01-28 04:20:00,66.1,63.4,29.87,NE,45,1.0,-999.0,91,0.04,,,0.20,Wunderground v.1.15,2013-01-28 14:20:00,
2013-01-28 04:25:00,66.1,63.4,29.87,NE,45,1.0,-999.0,91,0.04,,,0.20,Wunderground v.1.15,2013-01-28 14:25:00,
2013-01-28 04:30:00,66.1,63.4,29.87,NE,45,1.0,-999.0,91,0.04,,,0.20,Wunderground v.1.15,2013-01-28 14:30:00,
2013-01-28 04:35:00,66.1,63.4,29.87,NE,45,1.0,-999.0,91,0.04,,,0.20,Wunderground v.1.15,2013-01-28 14:35:00,
2013-01-28 04:40:00,66.1,63.4,29.87,NE,45,1.0,-999.0,91,0.04,,,0.20,Wunderground v.1.15,2013-01-28 14:40:00,
2013-01-28 04:45:00,66.0,63.6,29.86,NE,45,2.0,-999.0,92,0.01,,,0.20,Wunderground v.1.15,2013-01-28 14:45:00,
2013-01-28 04:50:00,66.0,63.6,29.86,NE,45,2.0,-999.0,92,0.01,,,0.20,Wunderground v.1.15,2013-01-28 14:50:00,
2013-01-28 04:55:00,66.0,63.6,29.86,NE,45,2.0,-999.0,92,0.01,,,0.20,Wunderground v.1.15,2013-01-28 14:55:00,
2013-01-28 05:00:00,66.0,63.6,29.86,NE,45,2.0,-999.0,92,0.01,,,0.20,Wunderground v.1.15,2013-01-28 15:00:00,
2013-01-28 05:05:00,66.0,63.6,29.86,NE,45,2.0,-999.0,92,0.01,,,0.20,Wunderground v.1.15,2013-01-28 15:05:00,
2013-01-28 05:10:00,66.0,63.6,29.86,NE,45,2.0,-999.0,92,0.01,,,0.20,Wunderground v.1.15,2013-01-28 15:10:00,
2013-01-28 05:15:00,66.0,63.6,29.87,NE,45,1.0,-999.0,92,0.02,,,0.20,Wunderground v.1.15,2013-01-28 15:15:00,
2013-01-28 05:20:00,66.0,63.6,29.87,NE,45,1.0,-999.0,92,0.02,,,0.20,Wunderground v.1.15,2013-01-28 15:20:00,
2013-01-28 05:25:00,66.0,63.6,29.87,NE,45,1.0,-999.0,92,0.02,,,0.20,Wunderground v.1.15,2013-01-28 15:25:00,
2013-01-28 05:30:00,66.0,63.6,29.87,NE,45,1.0,-999.0,92,0.02,,,0.20,Wunderground v.1.15,2013-01-28 15:30:00,
2013-01-28 05:35:00,66.0,63.6,29.87,NE,45,1.0,-999.0,92,0.02,,,0.20,Wunderground v.1.15,2013-01-28 15:35:00,
2013-01-28 05:40:00,66.0,63.6,29.87,NE,45,1.0,-999.0,92,0.02,,,0.20,Wunderground v.1.15,2013-01-28 15:40:00,
2013-01-28 05:45:00,66.0,63.6,29.88,NE,45,1.0,-999.0,92,0.01,,,0.20,Wunderground v.1.15,2013-01-28 15:45:00,
2013-01-28 05:50:00,66.0,63.6,29.88,NE,45,1.0,-999.0,92,0.01,,,0.20,Wunderground v.1.15,2013-01-28 15:50:00,
2013-01-28 05:55:00,66.0,63.6,29.88,NE,45,1.0,-999.0,92,0.01,,,0.20,Wunderground v.1.15,2013-01-28 15:55:00,
2013-01-28 06:00:00,66.0,63.6,29.88,NE,45,1.0,-999.0,92,0.01,,,0.20,Wunderground v.1.15,2013-01-28 16:00:00,
2013-01-28 06:05:00,66.0,63.6,29.88,NE,45,1.0,-999.0,92,0.01,,,0.20,Wunderground v.1.15,2013-01-28 16:05:00,
2013-01-28 06:10:00,66.0,63.6,29.88,NE,45,1.0,-999.0,92,0.01,,,0.20,Wunderground v.1.15,2013-01-28 16:10:00,
2013-01-28 06:15:00,65.9,63.8,29.88,NE,45,1.0,-999.0,93,0.01,,,0.20,Wunderground v.1.15,2013-01-28 16:15:00,
2013-01-28 06:20:00,65.9,63.8,29.88,NE,45,1.0,-999.0,93,0.01,,,0.20,Wunderground v.1.15,2013-01-28 16:20:00,
2013-01-28 06:25:00,65.9,63.8,29.88,NE,45,1.0,-999.0,93,0.01,,,0.20,Wunderground v.1.15,2013-01-28 16:25:00,
2013-01-28 06:30:00,65.9,63.8,29.88,NE,45,1.0,-999.0,93,0.01,,,0.20,Wunderground v.1.15,2013-01-28 16:30:00,
2013-01-28 06:35:00,65.9,63.8,29.88,NE,45,1.0,-999.0,93,0.01,,,0.20,Wunderground v.1.15,2013-01-28 16:35:00,
2013-01-28 06:40:00,65.9,63.8,29.88,NE,45,1.0,-999.0,93,0.01,,,0.20,Wunderground v.1.15,2013-01-28 16:40:00,
2013-01-28 06:45:00,65.7,63.6,29.89,NE,45,1.0,-999.0,93,0.02,,,0.20,Wunderground v.1.15,2013-01-28 16:45:00,
2013-01-28 06:50:00,65.7,63.6,29.89,NE,45,1.0,-999.0,93,0.02,,,0.20,Wunderground v.1.15,2013-01-28 16:50:00,
2013-01-28 06:55:00,65.7,63.6,29.89,NE,45,1.0,-999.0,93,0.02,,,0.20,Wunderground v.1.15,2013-01-28 16:55:00,
2013-01-28 07:00:00,65.7,63.6,29.89,NE,45,1.0,-999.0,93,0.02,,,0.20,Wunderground v.1.15,2013-01-28 17:00:00,
2013-01-28 07:05:00,65.7,63.6,29.89,NE,45,1.0,-999.0,93,0.02,,,0.20,Wunderground v.1.15,2013-01-28 17:05:00,
2013-01-28 07:10:00,65.7,63.6,29.89,NE,45,1.0,-999.0,93,0.02,,,0.20,Wunderground v.1.15,2013-01-28 17:10:00,
2013-01-28 07:15:00,65.7,63.6,29.91,NE,45,1.0,-999.0,93,0.02,,,0.20,Wunderground v.1.15,2013-01-28 17:15:00,
2013-01-28 07:20:00,65.7,63.6,29.91,NE,45,1.0,-999.0,93,0.02,,,0.20,Wunderground v.1.15,2013-01-28 17:20:00,
2013-01-28 07:25:00,65.7,63.6,29.91,NE,45,1.0,-999.0,93,0.02,,,0.20,Wunderground v.1.15,2013-01-28 17:25:00,
2013-01-28 07:30:00,65.7,63.6,29.91,NE,45,1.0,-999.0,93,0.02,,,0.20,Wunderground v.1.15,2013-01-28 17:30:00,
2013-01-28 07:35:00,65.7,63.6,29.91,NE,45,1.0,-999.0,93,0.02,,,0.20,Wunderground v.1.15,2013-01-28 17:35:00,
2013-01-28 07:40:00,65.7,63.6,29.91,NE,45,1.0,-999.0,93,0.02,,,0.20,Wunderground v.1.15,2013-01-28 17:40:00,
2013-01-28 07:45:00,65.2,63.1,29.92,NE,45,1.0,-999.0,93,0.04,,,0.20,Wunderground v.1.15,2013-01-28 17:45:00,
2013-01-28 07:50:00,65.2,63.1,29.92,NE,45,1.0,-999.0,93,0.04,,,0.20,Wunderground v.1.15,2013-01-28 17:50:00,
2013-01-28 07:55:00,65.2,63.1,29.92,NE,45,1.0,-999.0,93,0.04,,,0.20,Wunderground v.1.15,2013-01-28 17:55:00,
2013-01-28 08:00:00,65.2,63.1,29.92,NE,45,1.0,-999.0,93,0.04,,,0.20,Wunderground v.1.15,2013-01-28 18:00:00,
2013-01-28 08:05:00,65.2,63.1,29.92,NE,45,1.0,-999.0,93,0.04,,,0.20,Wunderground v.1.15,2013-01-28 18:05:00,
2013-01-28 08:10:00,65.2,63.1,29.92,NE,45,1.0,-999.0,93,0.04,,,0.20,Wunderground v.1.15,2013-01-28 18:10:00,
2013-01-28 08:15:00,65.5,63.4,29.92,NE,45,2.0,-999.0,93,0.05,,,0.20,Wunderground v.1.15,2013-01-28 18:15:00,
2013-01-28 08:20:00,65.5,63.4,29.92,NE,45,2.0,-999.0,93,0.05,,,0.20,Wunderground v.1.15,2013-01-28 18:20:00,
2013-01-28 08:25:00,65.5,63.4,29.92,NE,45,2.0,-999.0,93,0.05,,,0.20,Wunderground v.1.15,2013-01-28 18:25:00,
2013-01-28 08:30:00,65.5,63.4,29.92,NE,45,2.0,-999.0,93,0.05,,,0.20,Wunderground v.1.15,2013-01-28 18:30:00,
2013-01-28 08:35:00,65.5,63.4,29.92,NE,45,2.0,-999.0,93,0.05,,,0.27,Wunderground v.1.15,2013-01-28 18:35:00,
2013-01-28 08:40:00,65.5,63.4,29.92,NE,45,2.0,-999.0,93,0.05,,,0.27,Wunderground v.1.15,2013-01-28 18:40:00,
2013-01-28 08:45:00,65.9,63.8,29.93,NE,45,3.0,-999.0,93,0.04,,,0.27,Wunderground v.1.15,2013-01-28 18:45:00,
2013-01-28 08:50:00,65.9,63.8,29.93,NE,45,3.0,-999.0,93,0.04,,,0.27,Wunderground v.1.15,2013-01-28 18:50:00,
2013-01-28 08:55:00,65.9,63.8,29.93,NE,45,3.0,-999.0,93,0.04,,,0.27,Wunderground v.1.15,2013-01-28 18:55:00,
2013-01-28 09:00:00,65.9,63.8,29.93,NE,45,3.0,-999.0,93,0.04,,,0.27,Wunderground v.1.15,2013-01-28 19:00:00,
2013-01-28 09:05:00,65.9,63.8,29.93,NE,45,3.0,-999.0,93,0.04,,,0.27,Wunderground v.1.15,2013-01-28 19:05:00,
2013-01-28 09:10:00,65.9,63.8,29.93,NE,45,3.0,-999.0,93,0.04,,,0.27,Wunderground v.1.15,2013-01-28 19:10:00,
2013-01-28 09:15:00,66.6,64.2,29.93,NE,45,3.0,-999.0,92,0.04,,,0.27,Wunderground v.1.15,2013-01-28 19:15:00,
2013-01-28 09:20:00,66.6,64.2,29.93,NE,45,3.0,-999.0,92,0.04,,,0.27,Wunderground v.1.15,2013-01-28 19:20:00,
2013-01-28 09:25:00,66.6,64.2,29.93,NE,45,3.0,-999.0,92,0.04,,,0.27,Wunderground v.1.15,2013-01-28 19:25:00,
2013-01-28 09:30:00,66.6,64.2,29.93,NE,45,3.0,-999.0,92,0.04,,,0.27,Wunderground v.1.15,2013-01-28 19:30:00,
2013-01-28 09:35:00,66.6,64.2,29.93,NE,45,3.0,-999.0,92,0.04,,,0.27,Wunderground v.1.15,2013-01-28 19:35:00,
2013-01-28 09:40:00,66.6,64.2,29.93,NE,45,3.0,-999.0,92,0.04,,,0.27,Wunderground v.1.15,2013-01-28 19:40:00,
2013-01-28 09:45:00,68.5,64.8,29.93,NE,45,4.0,-999.0,88,0.04,,,0.27,Wunderground v.1.15,2013-01-28 19:45:00,
2013-01-28 09:50:00,68.5,64.8,29.93,NE,45,4.0,-999.0,88,0.04,,,0.27,Wunderground v.1.15,2013-01-28 19:50:00,
2013-01-28 09:55:00,68.5,64.8,29.93,NE,45,4.0,-999.0,88,0.04,,,0.27,Wunderground v.1.15,2013-01-28 19:55:00,
2013-01-28 10:00:00,68.5,64.8,29.93,NE,45,4.0,-999.0,88,0.04,,,0.27,Wunderground v.1.15,2013-01-28 20:00:00,
2013-01-28 10:05:00,68.5,64.8,29.93,NE,45,4.0,-999.0,88,0.04,,,0.27,Wunderground v.1.15,2013-01-28 20:05:00,
2013-01-28 10:10:00,68.5,64.8,29.93,NE,45,4.0,-999.0,88,0.04,,,0.27,Wunderground v.1.15,2013-01-28 20:10:00,
2013-01-28 10:15:00,70.4,64.3,29.93,NE,45,5.0,-999.0,81,0.03,,,0.27,Wunderground v.1.15,2013-01-28 20:15:00,
2013-01-28 10:20:00,70.4,64.3,29.93,NE,45,5.0,-999.0,81,0.03,,,0.27,Wunderground v.1.15,2013-01-28 20:20:00,
2013-01-28 10:25:00,70.4,64.3,29.93,NE,45,5.0,-999.0,81,0.03,,,0.30,Wunderground v.1.15,2013-01-28 20:25:00,
2013-01-28 10:30:00,70.4,64.3,29.93,NE,45,5.0,-999.0,81,0.03,,,0.30,Wunderground v.1.15,2013-01-28 20:30:00,
2013-01-28 10:33:00,70.4,64.3,29.93,NE,45,5.0,-999.0,81,0.03,,,0.27,Wunderground v.1.15,2013-01-28 20:33:00,
2013-01-28 10:35:00,70.4,64.3,29.93,NE,45,5.0,-999.0,81,0.03,,,0.30,Wunderground v.1.15,2013-01-28 20:35:00,
2013-01-28 10:40:00,70.4,64.3,29.93,NE,45,5.0,-999.0,81,0.03,,,0.30,Wunderground v.1.15,2013-01-28 20:40:00,
2013-01-28 10:45:00,71.2,65.4,29.92,NE,45,5.0,-999.0,82,0.02,,,0.30,Wunderground v.1.15,2013-01-28 20:45:00,
2013-01-28 10:50:00,71.2,65.4,29.92,NE,45,5.0,-999.0,82,0.02,,,0.30,Wunderground v.1.15,2013-01-28 20:50:00,
2013-01-28 10:55:00,71.2,65.4,29.92,NE,45,5.0,-999.0,82,0.02,,,0.30,Wunderground v.1.15,2013-01-28 20:55:00,
2013-01-28 11:00:00,71.2,65.4,29.92,NE,45,5.0,-999.0,82,0.02,,,0.30,Wunderground v.1.15,2013-01-28 21:00:00,
2013-01-28 11:05:00,71.2,65.4,29.92,NE,45,5.0,-999.0,82,0.02,,,0.30,Wunderground v.1.15,2013-01-28 21:05:00,
2013-01-28 11:10:00,71.2,65.4,29.92,NE,45,5.0,-999.0,82,0.02,,,0.30,Wunderground v.1.15,2013-01-28 21:10:00,
2013-01-28 11:15:00,71.2,66.8,29.91,NE,45,5.0,-999.0,86,0.02,,,0.30,Wunderground v.1.15,2013-01-28 21:15:00,
2013-01-28 11:20:00,71.2,66.8,29.91,NE,45,5.0,-999.0,86,0.02,,,0.30,Wunderground v.1.15,2013-01-28 21:20:00,
2013-01-28 11:25:00,71.2,66.8,29.91,NE,45,5.0,-999.0,86,0.02,,,0.30,Wunderground v.1.15,2013-01-28 21:25:00,
2013-01-28 11:30:00,71.2,66.8,29.91,NE,45,5.0,-999.0,86,0.02,,,0.30,Wunderground v.1.15,2013-01-28 21:30:00,
2013-01-28 11:35:00,71.2,66.8,29.91,NE,45,5.0,-999.0,86,0.02,,,0.30,Wunderground v.1.15,2013-01-28 21:35:00,
2013-01-28 11:40:00,71.2,66.8,29.91,NE,45,5.0,-999.0,86,0.02,,,0.30,Wunderground v.1.15,2013-01-28 21:40:00,
2013-01-28 11:45:00,70.7,67.0,29.90,NE,45,4.0,-999.0,88,0.02,,,0.30,Wunderground v.1.15,2013-01-28 21:45:00,
2013-01-28 11:50:00,70.7,67.0,29.90,NE,45,4.0,-999.0,88,0.02,,,0.30,Wunderground v.1.15,2013-01-28 21:50:00,
2013-01-28 11:55:00,70.7,67.0,29.90,NE,45,4.0,-999.0,88,0.02,,,0.30,Wunderground v.1.15,2013-01-28 21:55:00,
2013-01-28 12:00:00,70.7,67.0,29.90,NE,45,4.0,-999.0,88,0.02,,,0.30,Wunderground v.1.15,2013-01-28 22:00:00,
2013-01-28 12:05:00,70.7,67.0,29.90,NE,45,4.0,-999.0,88,0.02,,,0.32,Wunderground v.1.15,2013-01-28 22:05:00,
2013-01-28 12:10:00,70.7,67.0,29.90,NE,45,4.0,-999.0,88,0.02,,,0.32,Wunderground v.1.15,2013-01-28 22:10:00,
2013-01-28 12:15:00,71.7,64.5,29.88,NE,45,4.0,-999.0,78,0.01,,,0.32,Wunderground v.1.15,2013-01-28 22:15:00,
2013-01-28 12:20:00,71.7,64.5,29.88,NE,45,4.0,-999.0,78,0.01,,,0.32,Wunderground v.1.15,2013-01-28 22:20:00,
2013-01-28 12:25:00,71.7,64.5,29.88,NE,45,4.0,-999.0,78,0.01,,,0.32,Wunderground v.1.15,2013-01-28 22:25:00,
2013-01-28 12:30:00,71.7,64.5,29.88,NE,45,4.0,-999.0,78,0.01,,,0.32,Wunderground v.1.15,2013-01-28 22:30:00,
2013-01-28 12:35:00,71.7,64.5,29.88,NE,45,4.0,-999.0,78,0.01,,,0.32,Wunderground v.1.15,2013-01-28 22:35:00,
2013-01-28 12:40:00,71.7,64.5,29.88,NE,45,4.0,-999.0,78,0.01,,,0.32,Wunderground v.1.15,2013-01-28 22:40:00,
2013-01-28 12:45:00,74.5,64.5,29.87,NNE,23,3.0,-999.0,71,0.00,,,0.32,Wunderground v.1.15,2013-01-28 22:45:00,
2013-01-28 12:50:00,74.5,64.5,29.87,NNE,23,3.0,-999.0,71,0.00,,,0.32,Wunderground v.1.15,2013-01-28 22:50:00,
2013-01-28 12:55:00,74.5,64.5,29.87,NNE,23,3.0,-999.0,71,0.00,,,0.32,Wunderground v.1.15,2013-01-28 22:55:00,
2013-01-28 13:00:00,74.5,64.5,29.87,NNE,23,3.0,-999.0,71,0.00,,,0.32,Wunderground v.1.15,2013-01-28 23:00:00,
2013-01-28 13:05:00,74.5,64.5,29.87,NNE,23,3.0,-999.0,71,0.00,,,0.32,Wunderground v.1.15,2013-01-28 23:05:00,
2013-01-28 13:10:00,74.5,64.5,29.87,NNE,23,3.0,-999.0,71,0.00,,,0.32,Wunderground v.1.15,2013-01-28 23:10:00,
2013-01-28 13:15:00,75.8,64.9,29.85,NNE,23,3.0,-999.0,69,0.00,,,0.32,Wunderground v.1.15,2013-01-28 23:15:00,
2013-01-28 13:20:00,75.8,64.9,29.85,NNE,23,3.0,-999.0,69,0.00,,,0.32,Wunderground v.1.15,2013-01-28 23:20:00,
2013-01-28 13:25:00,75.8,64.9,29.85,NNE,23,3.0,-999.0,69,0.00,,,0.32,Wunderground v.1.15,2013-01-28 23:25:00,
2013-01-28 13:30:00,75.8,64.9,29.85,NNE,23,3.0,-999.0,69,0.00,,,0.32,Wunderground v.1.15,2013-01-28 23:30:00,
2013-01-28 13:35:00,75.8,64.9,29.85,NNE,23,3.0,-999.0,69,0.00,,,0.32,Wunderground v.1.15,2013-01-28 23:35:00,
2013-01-28 13:40:00,75.8,64.9,29.85,NNE,23,3.0,-999.0,69,0.00,,,0.32,Wunderground v.1.15,2013-01-28 23:40:00,
2013-01-28 13:45:00,76.9,65.5,29.84,NNE,23,2.0,-999.0,68,0.01,,,0.32,Wunderground v.1.15,2013-01-28 23:45:00,
2013-01-28 13:50:00,76.9,65.5,29.84,NNE,23,2.0,-999.0,68,0.01,,,0.32,Wunderground v.1.15,2013-01-28 23:50:00,
2013-01-28 13:55:00,76.9,65.5,29.84,NNE,23,2.0,-999.0,68,0.01,,,0.32,Wunderground v.1.15,2013-01-28 23:55:00,
2013-01-28 14:00:00,76.9,65.5,29.84,NNE,23,2.0,-999.0,68,0.01,,,0.32,Wunderground v.1.15,2013-01-29 00:00:00,
2013-01-28 14:05:00,76.9,65.5,29.84,NNE,23,2.0,-999.0,68,0.01,,,0.32,Wunderground v.1.15,2013-01-29 00:05:00,
2013-01-28 14:10:00,76.9,65.5,29.84,NNE,23,2.0,-999.0,68,0.01,,,0.32,Wunderground v.1.15,2013-01-29 00:10:00,
2013-01-28 14:15:00,76.1,65.2,29.83,NNE,23,3.0,-999.0,69,0.01,,,0.32,Wunderground v.1.15,2013-01-29 00:15:00,
2013-01-28 14:20:00,76.1,65.2,29.83,NNE,23,3.0,-999.0,69,0.01,,,0.32,Wunderground v.1.15,2013-01-29 00:20:00,
2013-01-28 14:25:00,76.1,65.2,29.83,NNE,23,3.0,-999.0,69,0.01,,,0.32,Wunderground v.1.15,2013-01-29 00:25:00,
2013-01-28 14:30:00,76.1,65.2,29.83,NNE,23,3.0,-999.0,69,0.01,,,0.32,Wunderground v.1.15,2013-01-29 00:30:00,
2013-01-28 14:35:00,76.1,65.2,29.83,NNE,23,3.0,-999.0,69,0.01,,,0.32,Wunderground v.1.15,2013-01-29 00:35:00,
2013-01-28 14:40:00,76.1,65.2,29.83,NNE,23,3.0,-999.0,69,0.01,,,0.32,Wunderground v.1.15,2013-01-29 00:40:00,
2013-01-28 14:45:00,75.6,64.7,29.83,NNE,23,2.0,-999.0,69,0.00,,,0.32,Wunderground v.1.15,2013-01-29 00:45:00,
2013-01-28 14:50:00,75.6,64.7,29.83,NNE,23,2.0,-999.0,69,0.00,,,0.32,Wunderground v.1.15,2013-01-29 00:50:00,
2013-01-28 14:55:00,75.6,64.7,29.83,NNE,23,2.0,-999.0,69,0.00,,,0.32,Wunderground v.1.15,2013-01-29 00:55:00,
2013-01-28 15:00:00,75.6,64.7,29.83,NNE,23,2.0,-999.0,69,0.00,,,0.32,Wunderground v.1.15,2013-01-29 01:00:00,
2013-01-28 15:05:00,75.6,64.7,29.83,NNE,23,2.0,-999.0,69,0.00,,,0.32,Wunderground v.1.15,2013-01-29 01:05:00,
2013-01-28 15:10:00,75.6,64.7,29.83,NNE,23,2.0,-999.0,69,0.00,,,0.32,Wunderground v.1.15,2013-01-29 01:10:00,
2013-01-28 15:15:00,75.8,64.9,29.83,NNE,23,1.0,-999.0,69,0.00,,,0.32,Wunderground v.1.15,2013-01-29 01:15:00,
2013-01-28 15:20:00,75.8,64.9,29.83,NNE,23,1.0,-999.0,69,0.00,,,0.32,Wunderground v.1.15,2013-01-29 01:20:00,
2013-01-28 15:25:00,75.8,64.9,29.83,NNE,23,1.0,-999.0,69,0.00,,,0.32,Wunderground v.1.15,2013-01-29 01:25:00,
2013-01-28 15:30:00,75.8,64.9,29.83,NNE,23,1.0,-999.0,69,0.00,,,0.32,Wunderground v.1.15,2013-01-29 01:30:00,
2013-01-28 15:35:00,75.8,64.9,29.83,NNE,23,1.0,-999.0,69,0.00,,,0.32,Wunderground v.1.15,2013-01-29 01:35:00,
2013-01-28 15:40:00,75.8,64.9,29.83,NNE,23,1.0,-999.0,69,0.00,,,0.32,Wunderground v.1.15,2013-01-29 01:40:00,
2013-01-28 15:45:00,74.5,64.9,29.83,NNE,23,1.0,-999.0,72,0.00,,,0.32,Wunderground v.1.15,2013-01-29 01:45:00,
2013-01-28 15:50:00,74.5,64.9,29.83,NNE,23,1.0,-999.0,72,0.00,,,0.32,Wunderground v.1.15,2013-01-29 01:50:00,
2013-01-28 15:55:00,74.5,64.9,29.83,NNE,23,1.0,-999.0,72,0.00,,,0.32,Wunderground v.1.15,2013-01-29 01:55:00,
2013-01-28 16:00:00,74.5,64.9,29.83,NNE,23,1.0,-999.0,72,0.00,,,0.32,Wunderground v.1.15,2013-01-29 02:00:00,
2013-01-28 16:05:00,74.5,64.9,29.83,NNE,23,1.0,-999.0,72,0.00,,,0.32,Wunderground v.1.15,2013-01-29 02:05:00,
2013-01-28 16:10:00,74.5,64.9,29.83,NNE,23,1.0,-999.0,72,0.00,,,0.32,Wunderground v.1.15,2013-01-29 02:10:00,
2013-01-28 16:15:00,72.8,64.4,29.83,NNE,23,0.0,-999.0,75,0.00,,,0.32,Wunderground v.1.15,2013-01-29 02:15:00,
2013-01-28 16:20:00,72.8,64.4,29.83,NNE,23,0.0,-999.0,75,0.00,,,0.32,Wunderground v.1.15,2013-01-29 02:20:00,
2013-01-28 16:25:00,72.8,64.4,29.83,NNE,23,0.0,-999.0,75,0.00,,,0.32,Wunderground v.1.15,2013-01-29 02:25:00,
2013-01-28 16:30:00,72.8,64.4,29.83,NNE,23,0.0,-999.0,75,0.00,,,0.32,Wunderground v.1.15,2013-01-29 02:30:00,
2013-01-28 16:35:00,72.8,64.4,29.83,NNE,23,0.0,-999.0,75,0.00,,,0.32,Wunderground v.1.15,2013-01-29 02:35:00,
2013-01-28 16:40:00,72.8,64.4,29.83,NNE,23,0.0,-999.0,75,0.00,,,0.32,Wunderground v.1.15,2013-01-29 02:40:00,
2013-01-28 16:45:00,71.8,64.6,29.84,NNE,23,0.0,-999.0,78,0.00,,,0.32,Wunderground v.1.15,2013-01-29 02:45:00,
2013-01-28 16:50:00,71.8,64.6,29.84,NNE,23,0.0,-999.0,78,0.00,,,0.32,Wunderground v.1.15,2013-01-29 02:50:00,
2013-01-28 16:55:00,71.8,64.6,29.84,NNE,23,0.0,-999.0,78,0.00,,,0.32,Wunderground v.1.15,2013-01-29 02:55:00,
2013-01-28 17:00:00,71.8,64.6,29.84,NNE,23,0.0,-999.0,78,0.00,,,0.32,Wunderground v.1.15,2013-01-29 03:00:00,
2013-01-28 17:05:00,71.8,64.6,29.84,NNE,23,0.0,-999.0,78,0.00,,,0.32,Wunderground v.1.15,2013-01-29 03:05:00,
2013-01-28 17:10:00,71.8,64.6,29.84,NNE,23,0.0,-999.0,78,0.00,,,0.32,Wunderground v.1.15,2013-01-29 03:10:00,
2013-01-28 17:15:00,70.9,64.4,29.85,NNE,23,0.0,-999.0,80,0.01,,,0.32,Wunderground v.1.15,2013-01-29 03:15:00,
2013-01-28 17:20:00,70.9,64.4,29.85,NNE,23,0.0,-999.0,80,0.01,,,0.32,Wunderground v.1.15,2013-01-29 03:20:00,
2013-01-28 17:25:00,70.9,64.4,29.85,NNE,23,0.0,-999.0,80,0.01,,,0.32,Wunderground v.1.15,2013-01-29 03:25:00,
2013-01-28 17:30:00,70.9,64.4,29.85,NNE,23,0.0,-999.0,80,0.01,,,0.32,Wunderground v.1.15,2013-01-29 03:30:00,
2013-01-28 17:35:00,70.9,64.4,29.85,NNE,23,0.0,-999.0,80,0.01,,,0.32,Wunderground v.1.15,2013-01-29 03:35:00,
2013-01-28 17:40:00,70.9,64.4,29.85,NNE,23,0.0,-999.0,80,0.01,,,0.32,Wunderground v.1.15,2013-01-29 03:40:00,
2013-01-28 17:45:00,70.3,64.5,29.85,NNE,23,0.0,-999.0,82,0.01,,,0.32,Wunderground v.1.15,2013-01-29 03:45:00,
2013-01-28 17:50:00,70.3,64.5,29.85,NNE,23,0.0,-999.0,82,0.01,,,0.32,Wunderground v.1.15,2013-01-29 03:50:00,
2013-01-28 17:55:00,70.3,64.5,29.85,NNE,23,0.0,-999.0,82,0.01,,,0.32,Wunderground v.1.15,2013-01-29 03:55:00,
2013-01-28 18:00:00,70.3,64.5,29.85,NNE,23,0.0,-999.0,82,0.01,,,0.32,Wunderground v.1.15,2013-01-29 04:00:00,
2013-01-28 18:05:00,70.3,64.5,29.85,NNE,23,0.0,-999.0,82,0.01,,,0.32,Wunderground v.1.15,2013-01-29 04:05:00,
2013-01-28 18:10:00,70.3,64.5,29.85,NNE,23,0.0,-999.0,82,0.01,,,0.32,Wunderground v.1.15,2013-01-29 04:10:00,
2013-01-28 18:15:00,69.5,65.1,29.86,NNE,23,0.0,-999.0,86,0.00,,,0.32,Wunderground v.1.15,2013-01-29 04:15:00,
2013-01-28 18:20:00,69.5,65.1,29.86,NNE,23,0.0,-999.0,86,0.00,,,0.32,Wunderground v.1.15,2013-01-29 04:20:00,
2013-01-28 18:25:00,69.5,65.1,29.86,NNE,23,0.0,-999.0,86,0.00,,,0.32,Wunderground v.1.15,2013-01-29 04:25:00,
2013-01-28 18:30:00,69.5,65.1,29.86,NNE,23,0.0,-999.0,86,0.00,,,0.32,Wunderground v.1.15,2013-01-29 04:30:00,
2013-01-28 18:35:00,69.5,65.1,29.86,NNE,23,0.0,-999.0,86,0.00,,,0.32,Wunderground v.1.15,2013-01-29 04:35:00,
2013-01-28 18:40:00,69.5,65.1,29.86,NNE,23,0.0,-999.0,86,0.00,,,0.32,Wunderground v.1.15,2013-01-29 04:40:00,
2013-01-28 18:45:00,68.2,64.5,29.86,NNE,23,0.0,-999.0,88,0.00,,,0.32,Wunderground v.1.15,2013-01-29 04:45:00,
2013-01-28 18:50:00,68.2,64.5,29.86,NNE,23,0.0,-999.0,88,0.00,,,0.32,Wunderground v.1.15,2013-01-29 04:50:00,
2013-01-28 18:55:00,68.2,64.5,29.86,NNE,23,0.0,-999.0,88,0.00,,,0.32,Wunderground v.1.15,2013-01-29 04:55:00,
2013-01-28 19:00:00,68.2,64.5,29.86,NNE,23,0.0,-999.0,88,0.00,,,0.32,Wunderground v.1.15,2013-01-29 05:00:00,
2013-01-28 19:05:00,68.2,64.5,29.86,NNE,23,0.0,-999.0,88,0.00,,,0.32,Wunderground v.1.15,2013-01-29 05:05:00,
2013-01-28 19:10:00,68.2,64.5,29.86,NNE,23,0.0,-999.0,88,0.00,,,0.32,Wunderground v.1.15,2013-01-29 05:10:00,
2013-01-28 19:15:00,67.4,63.7,29.88,NNE,23,0.0,-999.0,88,0.00,,,0.32,Wunderground v.1.15,2013-01-29 05:15:00,
2013-01-28 19:20:00,67.4,63.7,29.88,NNE,23,0.0,-999.0,88,0.00,,,0.32,Wunderground v.1.15,2013-01-29 05:20:00,
2013-01-28 19:25:00,67.4,63.7,29.88,NNE,23,0.0,-999.0,88,0.00,,,0.32,Wunderground v.1.15,2013-01-29 05:25:00,
2013-01-28 19:30:00,67.4,63.7,29.88,NNE,23,0.0,-999.0,88,0.00,,,0.32,Wunderground v.1.15,2013-01-29 05:30:00,
2013-01-28 19:35:00,67.4,63.7,29.88,NNE,23,0.0,-999.0,88,0.00,,,0.32,Wunderground v.1.15,2013-01-29 05:35:00,
2013-01-28 19:40:00,67.4,63.7,29.88,NNE,23,0.0,-999.0,88,0.00,,,0.32,Wunderground v.1.15,2013-01-29 05:40:00,
2013-01-28 19:45:00,66.8,63.5,29.89,NNE,23,0.0,-999.0,89,0.00,,,0.32,Wunderground v.1.15,2013-01-29 05:45:00,
2013-01-28 19:50:00,66.8,63.5,29.89,NNE,23,0.0,-999.0,89,0.00,,,0.32,Wunderground v.1.15,2013-01-29 05:50:00,
2013-01-28 19:55:00,66.8,63.5,29.89,NNE,23,0.0,-999.0,89,0.00,,,0.32,Wunderground v.1.15,2013-01-29 05:55:00,
2013-01-28 20:00:00,66.8,63.5,29.89,NNE,23,0.0,-999.0,89,0.00,,,0.32,Wunderground v.1.15,2013-01-29 06:00:00,
2013-01-28 20:05:00,66.8,63.5,29.89,NNE,23,0.0,-999.0,89,0.00,,,0.32,Wunderground v.1.15,2013-01-29 06:05:00,
2013-01-28 20:10:00,66.8,63.5,29.89,NNE,23,0.0,-999.0,89,0.00,,,0.32,Wunderground v.1.15,2013-01-29 06:10:00,
2013-01-28 20:15:00,66.6,62.9,29.89,NNE,23,0.0,-999.0,88,0.00,,,0.32,Wunderground v.1.15,2013-01-29 06:15:00,
2013-01-28 20:20:00,66.6,62.9,29.89,NNE,23,0.0,-999.0,88,0.00,,,0.32,Wunderground v.1.15,2013-01-29 06:20:00,
2013-01-28 20:25:00,66.6,62.9,29.89,NNE,23,0.0,-999.0,88,0.00,,,0.32,Wunderground v.1.15,2013-01-29 06:25:00,
2013-01-28 20:30:00,66.6,62.9,29.89,NNE,23,0.0,-999.0,88,0.00,,,0.32,Wunderground v.1.15,2013-01-29 06:30:00,
2013-01-28 20:35:00,66.6,62.9,29.89,NNE,23,0.0,-999.0,88,0.00,,,0.33,Wunderground v.1.15,2013-01-29 06:35:00,
2013-01-28 20:40:00,66.6,62.9,29.89,NNE,23,0.0,-999.0,88,0.00,,,0.33,Wunderground v.1.15,2013-01-29 06:40:00,
2013-01-28 20:45:00,66.9,63.2,29.89,NNE,23,0.0,-999.0,88,0.00,,,0.33,Wunderground v.1.15,2013-01-29 06:45:00,
2013-01-28 20:50:00,66.9,63.2,29.89,NNE,23,0.0,-999.0,88,0.00,,,0.33,Wunderground v.1.15,2013-01-29 06:50:00,
2013-01-28 20:55:00,66.9,63.2,29.89,NNE,23,0.0,-999.0,88,0.00,,,0.33,Wunderground v.1.15,2013-01-29 06:55:00,
2013-01-28 21:00:00,66.9,63.2,29.89,NNE,23,0.0,-999.0,88,0.00,,,0.33,Wunderground v.1.15,2013-01-29 07:00:00,
2013-01-28 21:05:00,66.9,63.2,29.89,NNE,23,0.0,-999.0,88,0.00,,,0.33,Wunderground v.1.15,2013-01-29 07:05:00,
2013-01-28 21:10:00,66.9,63.2,29.89,NNE,23,0.0,-999.0,88,0.00,,,0.33,Wunderground v.1.15,2013-01-29 07:10:00,
2013-01-28 21:15:00,66.9,63.6,29.89,NNE,23,0.0,-999.0,89,0.00,,,0.33,Wunderground v.1.15,2013-01-29 07:15:00,
2013-01-28 21:20:00,66.9,63.6,29.89,NNE,23,0.0,-999.0,89,0.00,,,0.33,Wunderground v.1.15,2013-01-29 07:20:00,
2013-01-28 21:25:00,66.9,63.6,29.89,NNE,23,0.0,-999.0,89,0.00,,,0.33,Wunderground v.1.15,2013-01-29 07:25:00,
2013-01-28 21:30:00,66.9,63.6,29.89,NNE,23,0.0,-999.0,89,0.00,,,0.33,Wunderground v.1.15,2013-01-29 07:30:00,
2013-01-28 21:35:00,66.9,63.6,29.89,NNE,23,0.0,-999.0,89,0.00,,,0.33,Wunderground v.1.15,2013-01-29 07:35:00,
2013-01-28 21:40:00,66.9,63.6,29.89,NNE,23,0.0,-999.0,89,0.00,,,0.33,Wunderground v.1.15,2013-01-29 07:40:00,
2013-01-28 21:45:00,66.1,62.8,29.89,NNE,23,0.0,-999.0,89,0.00,,,0.33,Wunderground v.1.15,2013-01-29 07:45:00,
2013-01-28 21:50:00,66.1,62.8,29.89,NNE,23,0.0,-999.0,89,0.00,,,0.33,Wunderground v.1.15,2013-01-29 07:50:00,
2013-01-28 21:55:00,66.1,62.8,29.89,NNE,23,0.0,-999.0,89,0.00,,,0.33,Wunderground v.1.15,2013-01-29 07:55:00,
2013-01-28 22:00:00,66.1,62.8,29.89,NNE,23,0.0,-999.0,89,0.00,,,0.33,Wunderground v.1.15,2013-01-29 08:00:00,
2013-01-28 22:05:00,66.1,62.8,29.89,NNE,23,0.0,-999.0,89,0.00,,,0.33,Wunderground v.1.15,2013-01-29 08:05:00,
2013-01-28 22:10:00,66.1,62.8,29.89,NNE,23,0.0,-999.0,89,0.00,,,0.33,Wunderground v.1.15,2013-01-29 08:10:00,
2013-01-28 22:15:00,65.4,62.1,29.89,NNE,23,0.0,-999.0,89,0.00,,,0.33,Wunderground v.1.15,2013-01-29 08:15:00,
2013-01-28 22:20:00,65.4,62.1,29.89,NNE,23,0.0,-999.0,89,0.00,,,0.33,Wunderground v.1.15,2013-01-29 08:20:00,
2013-01-28 22:25:00,65.4,62.1,29.89,NNE,23,0.0,-999.0,89,0.00,,,0.33,Wunderground v.1.15,2013-01-29 08:25:00,
2013-01-28 22:30:00,65.4,62.1,29.89,NNE,23,0.0,-999.0,89,0.00,,,0.33,Wunderground v.1.15,2013-01-29 08:30:00,
2013-01-28 22:35:00,65.4,62.1,29.89,NNE,23,0.0,-999.0,89,0.00,,,0.33,Wunderground v.1.15,2013-01-29 08:35:00,
2013-01-28 22:40:00,65.4,62.1,29.89,NNE,23,0.0,-999.0,89,0.00,,,0.33,Wunderground v.1.15,2013-01-29 08:40:00,
2013-01-28 22:45:00,64.8,61.5,29.89,NNE,23,1.0,-999.0,89,0.00,,,0.33,Wunderground v.1.15,2013-01-29 08:45:00,
2013-01-28 22:50:00,64.8,61.5,29.89,NNE,23,1.0,-999.0,89,0.00,,,0.33,Wunderground v.1.15,2013-01-29 08:50:00,
2013-01-28 22:55:00,64.8,61.5,29.89,NNE,23,1.0,-999.0,89,0.00,,,0.33,Wunderground v.1.15,2013-01-29 08:55:00,
2013-01-28 23:00:00,64.8,61.5,29.89,NNE,23,1.0,-999.0,89,0.00,,,0.33,Wunderground v.1.15,2013-01-29 09:00:00,
2013-01-28 23:05:00,64.8,61.5,29.89,NNE,23,1.0,-999.0,89,0.00,,,0.33,Wunderground v.1.15,2013-01-29 09:05:00,
2013-01-28 23:10:00,64.8,61.5,29.89,NNE,23,1.0,-999.0,89,0.00,,,0.33,Wunderground v.1.15,2013-01-29 09:10:00,
2013-01-28 23:15:00,64.6,61.0,29.89,NNE,23,1.0,-999.0,88,0.01,,,0.33,Wunderground v.1.15,2013-01-29 09:15:00,
2013-01-28 23:20:00,64.6,61.0,29.89,NNE,23,1.0,-999.0,88,0.01,,,0.33,Wunderground v.1.15,2013-01-29 09:20:00,
2013-01-28 23:25:00,64.6,61.0,29.89,NNE,23,1.0,-999.0,88,0.01,,,0.33,Wunderground v.1.15,2013-01-29 09:25:00,
2013-01-28 23:30:00,64.6,61.0,29.89,NNE,23,1.0,-999.0,88,0.01,,,0.33,Wunderground v.1.15,2013-01-29 09:30:00,
2013-01-28 23:35:00,64.6,61.0,29.89,NNE,23,1.0,-999.0,88,0.01,,,0.33,Wunderground v.1.15,2013-01-29 09:35:00,
2013-01-28 23:40:00,64.6,61.0,29.89,NNE,23,1.0,-999.0,88,0.01,,,0.33,Wunderground v.1.15,2013-01-29 09:40:00,
2013-01-28 23:45:00,64.2,60.6,29.88,NNE,23,1.0,-999.0,88,0.01,,,0.33,Wunderground v.1.15,2013-01-29 09:45:00,
2013-01-28 23:50:00,64.2,60.6,29.88,NNE,23,1.0,-999.0,88,0.01,,,0.33,Wunderground v.1.15,2013-01-29 09:50:00,
2013-01-28 23:55:00,64.2,60.6,29.88,NNE,23,1.0,-999.0,88,0.01,,,0.33,Wunderground v.1.15,2013-01-29 09:55:00,